Time;durP1;ratioP1;P1;durP2;ratioP2;P2;SDS_P1;SDS_P2;PMS_P1;PMS_P2;Temp;Humidity;BMP_temperature;BMP_pressure;BME280_temperature;BME280_humidity;BME280_pressure;Samples;Min_cycle;Max_cycle;Signal;HPM_P1;HPM_P2
2023/03/29 00:02:01;;;;;;;5.50;2.77;;;11.40;43.40;;;;;;5048744;28;20816;-85
2023/03/29 00:04:28;;;;;;;5.93;3.43;;;11.40;44.40;;;;;;5044328;28;20451;-86
2023/03/29 00:06:55;;;;;;;7.27;3.60;;;11.40;43.80;;;;;;5056811;28;20969;-84
2023/03/29 00:09:25;;;;;;;15.27;5.93;;;11.40;44.30;;;;;;5047718;28;20436;-85
2023/03/29 00:11:52;;;;;;;6.57;4.93;;;11.30;44.30;;;;;;5062162;28;21209;-87
2023/03/29 00:14:19;;;;;;;5.90;3.80;;;11.20;44.00;;;;;;5048008;28;20952;-86
2023/03/29 00:16:47;;;;;;;8.40;4.10;;;10.90;44.60;;;;;;5026206;28;20471;-87
2023/03/29 00:19:14;;;;;;;5.17;3.20;;;10.90;45.10;;;;;;5030736;28;20460;-86
2023/03/29 00:21:41;;;;;;;3.73;3.27;;;11.00;45.90;;;;;;5024768;28;20432;-85
2023/03/29 00:24:08;;;;;;;4.77;3.70;;;11.20;45.80;;;;;;5045027;28;20444;-86
2023/03/29 00:26:35;;;;;;;6.67;3.70;;;11.20;45.20;;;;;;5032810;28;20447;-85
2023/03/29 00:29:02;;;;;;;8.73;3.80;;;11.30;45.10;;;;;;5038611;28;20477;-85
2023/03/29 00:31:30;;;;;;;7.20;3.80;;;11.40;45.00;;;;;;5042569;28;20441;-87
2023/03/29 00:33:58;;;;;;;4.33;3.67;;;11.40;45.10;;;;;;5041767;28;20818;-87
2023/03/29 00:36:26;;;;;;;3.80;2.77;;;11.40;45.50;;;;;;5062038;28;20444;-86
2023/03/29 00:38:55;;;;;;;5.50;2.97;;;11.30;43.40;;;;;;5063532;28;20466;-86
2023/03/29 00:41:22;;;;;;;2.47;2.10;;;11.20;44.40;;;;;;5047665;28;20452;-85
2023/03/29 00:43:58;;;;;;;2.27;2.07;;;10.70;44.90;;;;;;5041255;28;20508;-85
2023/03/29 00:46:26;;;;;;;3.00;2.47;;;10.80;45.30;;;;;;5029793;28;20444;-84
2023/03/29 00:48:57;;;;;;;5.07;2.20;;;10.80;45.30;;;;;;5051058;28;20957;-87
2023/03/29 00:51:28;;;;;;;2.53;1.87;;;10.80;45.50;;;;;;5065489;28;20452;-85
2023/03/29 00:53:58;;;;;;;1.93;1.67;;;10.70;46.80;;;;;;5051696;28;20464;-85
2023/03/29 00:56:30;;;;;;;2.57;1.60;;;10.60;48.10;;;;;;5050007;28;20456;-86
2023/03/29 00:59:02;;;;;;;1.50;1.40;;;10.70;48.90;;;;;;5049799;28;20479;-85
2023/03/29 01:01:36;;;;;;;3.63;1.27;;;10.90;49.00;;;;;;5053362;28;20447;-86
2023/03/29 01:04:17;;;;;;;1.60;1.50;;;10.70;49.60;;;;;;5035640;28;20500;-87
2023/03/29 01:06:52;;;;;;;2.00;1.60;;;10.90;49.10;;;;;;5033737;28;20474;-86
2023/03/29 01:09:23;;;;;;;3.83;1.33;;;11.00;49.30;;;;;;5031374;28;20511;-86
2023/03/29 01:11:55;;;;;;;1.50;1.40;;;11.00;49.00;;;;;;5061733;28;20483;-88
2023/03/29 01:14:25;;;;;;;1.90;1.70;;;11.10;49.70;;;;;;5063768;28;20452;-86
2023/03/29 01:16:52;;;;;;;1.97;1.60;;;11.10;50.10;;;;;;5046262;28;20476;-87
2023/03/29 01:19:25;;;;;;;2.57;1.93;;;11.20;50.60;;;;;;5036453;28;20441;-87
2023/03/29 01:22:00;;;;;;;1.93;1.67;;;11.30;50.90;;;;;;5059766;28;20476;-87
2023/03/29 01:24:40;;;;;;;5.73;1.60;;;11.30;51.30;;;;;;5044885;28;20458;-87
2023/03/29 01:27:14;;;;;;;6.33;2.07;;;11.30;51.00;;;;;;5045074;28;20981;-87
2023/03/29 01:29:45;;;;;;;4.23;1.77;;;11.40;50.80;;;;;;5076986;28;20453;-86
2023/03/29 01:32:17;;;;;;;2.40;1.87;;;11.50;51.00;;;;;;5034157;28;20467;-84
2023/03/29 01:34:52;;;;;;;7.00;2.20;;;11.50;49.80;;;;;;5047946;28;20471;-86
2023/03/29 01:37:23;;;;;;;3.47;2.30;;;11.40;50.00;;;;;;5049607;28;20476;-86
2023/03/29 01:39:51;;;;;;;1.77;1.67;;;11.40;50.80;;;;;;5051151;28;20452;-86
2023/03/29 01:42:39;;;;;;;5.00;1.97;;;11.30;51.20;;;;;;5034293;28;20452;-87
2023/03/29 01:45:14;;;;;;;4.40;2.03;;;11.30;51.20;;;;;;5045281;28;20449;-86
2023/03/29 01:47:46;;;;;;;1.90;1.80;;;11.30;50.80;;;;;;5058119;28;20553;-86
2023/03/29 01:50:18;;;;;;;4.90;2.07;;;11.20;50.40;;;;;;5032929;28;20532;-84
2023/03/29 01:52:52;;;;;;;2.40;2.20;;;11.00;51.70;;;;;;5051049;28;20463;-87
2023/03/29 01:55:24;;;;;;;3.10;1.90;;;10.80;52.30;;;;;;5061177;28;20448;-84
2023/03/29 01:57:54;;;;;;;5.30;1.70;;;11.00;52.10;;;;;;5049972;28;20961;-87
2023/03/29 02:00:26;;;;;;;2.43;2.23;;;11.20;52.00;;;;;;5069342;28;20448;-86
2023/03/29 02:02:59;;;;;;;1.70;1.60;;;11.30;51.70;;;;;;5041248;28;20467;-85
2023/03/29 02:05:28;;;;;;;2.40;2.20;;;11.40;51.60;;;;;;5078375;28;20792;-85
2023/03/29 02:08:00;;;;;;;4.33;2.23;;;11.50;51.40;;;;;;5046340;28;21006;-85
2023/03/29 02:10:27;;;;;;;7.00;3.77;;;11.50;51.40;;;;;;5052926;28;20938;-87
2023/03/29 02:12:55;;;;;;;4.70;2.70;;;11.50;51.50;;;;;;5034039;28;20457;-84
2023/03/29 02:15:23;;;;;;;14.10;4.77;;;11.50;51.50;;;;;;5075919;28;21057;-86
2023/03/29 02:17:51;;;;;;;3.00;2.47;;;11.50;51.60;;;;;;5043695;28;20455;-87
2023/03/29 02:20:22;;;;;;;6.63;2.00;;;11.50;51.40;;;;;;5077368;28;20568;-86
2023/03/29 02:22:55;;;;;;;5.60;2.50;;;10.80;52.30;;;;;;5047777;28;20448;-85
2023/03/29 02:25:23;;;;;;;3.40;1.90;;;10.80;52.30;;;;;;5040248;28;20439;-84
2023/03/29 02:27:51;;;;;;;2.37;1.90;;;10.80;52.20;;;;;;5044810;28;20460;-87
2023/03/29 02:30:19;;;;;;;2.43;2.20;;;11.00;51.80;;;;;;5052423;28;20456;-88
2023/03/29 02:32:55;;;;;;;2.70;1.87;;;11.00;50.70;;;;;;5051113;28;20464;-86
2023/03/29 02:35:33;;;;;;;2.40;1.73;;;11.00;50.60;;;;;;5051485;28;20448;-86
2023/03/29 02:38:02;;;;;;;3.67;1.83;;;11.10;51.20;;;;;;5026026;28;20491;-84
2023/03/29 02:40:31;;;;;;;4.27;2.10;;;11.10;51.20;;;;;;5060674;28;20505;-85
2023/03/29 02:43:00;;;;;;;4.40;2.20;;;11.20;51.00;;;;;;5033381;28;20451;-87
2023/03/29 02:45:28;;;;;;;2.33;2.13;;;11.20;51.20;;;;;;5034950;28;20448;-84
2023/03/29 02:48:03;;;;;;;3.77;2.63;;;11.30;50.90;;;;;;5049372;28;20464;-84
2023/03/29 02:50:36;;;;;;;2.30;2.10;;;11.30;51.10;;;;;;5045770;28;20458;-87
2023/03/29 02:53:09;;;;;;;2.90;2.00;;;11.30;51.10;;;;;;5050700;28;20543;-85
2023/03/29 02:55:38;;;;;;;3.03;2.50;;;11.20;51.20;;;;;;5043305;28;20440;-85
2023/03/29 02:58:07;;;;;;;3.60;2.50;;;11.20;50.90;;;;;;5047221;28;20476;-87
2023/03/29 03:00:37;;;;;;;3.70;2.63;;;11.20;50.80;;;;;;5032868;28;20445;-84
2023/03/29 03:03:07;;;;;;;2.30;1.97;;;11.10;51.50;;;;;;5064437;28;20953;-84
2023/03/29 03:05:34;;;;;;;2.30;1.97;;;11.20;51.20;;;;;;5050409;28;21193;-87
2023/03/29 03:08:03;;;;;;;4.80;3.07;;;11.20;51.60;;;;;;5052517;28;20543;-85
2023/03/29 03:10:31;;;;;;;2.60;2.40;;;11.00;51.80;;;;;;5035089;28;20443;-87
2023/03/29 03:12:58;;;;;;;4.20;2.90;;;11.10;52.00;;;;;;5072736;28;20472;-87
2023/03/29 03:15:26;;;;;;;5.00;2.63;;;11.20;51.50;;;;;;5032505;28;20448;-87
2023/03/29 03:17:53;;;;;;;2.40;2.20;;;11.20;51.40;;;;;;5048911;28;20473;-85
2023/03/29 03:20:22;;;;;;;3.90;2.87;;;11.20;50.90;;;;;;5063715;28;20443;-86
2023/03/29 03:22:49;;;;;;;4.90;3.30;;;11.20;51.60;;;;;;5030442;28;21160;-87
2023/03/29 03:25:18;;;;;;;3.20;2.37;;;11.20;51.90;;;;;;5031217;28;20444;-85
2023/03/29 03:27:45;;;;;;;3.10;2.47;;;11.10;51.60;;;;;;5039099;28;20605;-87
2023/03/29 03:30:13;;;;;;;2.63;2.43;;;11.20;51.70;;;;;;5034867;28;20467;-86
2023/03/29 03:32:58;;;;;;;16.63;8.50;;;11.20;51.90;;;;;;5081284;28;21058;-85
2023/03/29 03:36:04;;;;;;;23.87;12.90;;;11.30;51.80;;;;;;5065079;28;20450;-87
2023/03/29 03:38:31;;;;;;;31.90;16.27;;;11.30;51.50;;;;;;5032872;28;20482;-86
2023/03/29 03:41:00;;;;;;;55.50;23.17;;;11.30;51.40;;;;;;5067019;28;20584;-86
2023/03/29 03:43:30;;;;;;;24.40;12.10;;;11.30;51.20;;;;;;5049826;28;20432;-87
2023/03/29 03:45:57;;;;;;;21.13;9.80;;;11.30;50.80;;;;;;5049611;28;21057;-87
2023/03/29 03:48:26;;;;;;;13.97;7.67;;;11.20;50.80;;;;;;5028973;28;20973;-84
2023/03/29 03:50:58;;;;;;;17.87;9.30;;;11.20;50.80;;;;;;5047838;28;20452;-86
2023/03/29 03:53:32;;;;;;;18.90;10.43;;;11.10;50.30;;;;;;5047758;28;20562;-86
2023/03/29 03:56:15;;;;;;;10.10;6.40;;;11.10;50.60;;;;;;5045580;28;21118;-85
2023/03/29 03:59:17;;;;;;;11.27;7.00;;;11.10;51.00;;;;;;5055900;28;20459;-86
2023/03/29 04:01:52;;;;;;;9.87;5.40;;;11.00;50.70;;;;;;5061459;28;20451;-83
2023/03/29 04:04:23;;;;;;;7.17;6.27;;;11.00;50.90;;;;;;5025708;28;20808;-85
2023/03/29 04:07:02;;;;;;;18.47;9.93;;;10.90;50.60;;;;;;5064029;28;20468;-87
2023/03/29 04:09:41;;;;;;;6.37;3.03;;;10.80;51.50;;;;;;5043189;28;20694;-86
2023/03/29 04:12:40;;;;;;;4.93;3.63;;;10.60;51.50;;;;;;5028270;28;20580;-87
2023/03/29 04:15:09;;;;;;;5.47;3.23;;;10.50;52.00;;;;;;5045358;28;20459;-84
2023/03/29 04:17:38;;;;;;;5.17;3.50;;;10.60;52.20;;;;;;5074711;28;20468;-84
2023/03/29 04:20:27;;;;;;;7.60;4.07;;;10.60;52.40;;;;;;5066578;28;20452;-86
2023/03/29 04:22:55;;;;;;;8.10;4.80;;;10.70;52.60;;;;;;5043820;28;20445;-86
2023/03/29 04:25:24;;;;;;;7.50;4.40;;;10.80;52.80;;;;;;5075565;28;20452;-86
2023/03/29 04:28:13;;;;;;;9.53;5.73;;;10.90;52.50;;;;;;5042998;28;20845;-87
2023/03/29 04:30:47;;;;;;;8.33;6.03;;;10.90;52.30;;;;;;5050520;28;20505;-86
2023/03/29 04:33:33;;;;;;;12.97;6.67;;;10.90;51.80;;;;;;5051841;28;20505;-85
2023/03/29 04:36:01;;;;;;;13.33;7.10;;;11.00;52.20;;;;;;5034068;28;20443;-86
2023/03/29 04:38:30;;;;;;;10.63;5.20;;;11.00;52.20;;;;;;5033221;28;20860;-86
2023/03/29 04:41:00;;;;;;;7.17;4.77;;;11.00;52.40;;;;;;5058522;28;20451;-86
2023/03/29 04:43:46;;;;;;;6.57;4.73;;;11.00;52.40;;;;;;5042275;28;20428;-85
2023/03/29 04:46:24;;;;;;;11.10;4.80;;;11.10;52.40;;;;;;5067420;28;20458;-85
2023/03/29 04:49:06;;;;;;;5.03;4.40;;;11.00;52.50;;;;;;5027348;28;20452;-84
2023/03/29 04:51:37;;;;;;;10.60;5.10;;;11.10;52.40;;;;;;5052986;28;20440;-86
2023/03/29 04:54:05;;;;;;;7.30;4.83;;;11.10;52.20;;;;;;5063833;28;20463;-85
2023/03/29 04:56:44;;;;;;;6.17;4.53;;;11.10;51.90;;;;;;5050069;28;20487;-85
2023/03/29 04:59:35;;;;;;;4.40;3.57;;;11.00;51.50;;;;;;5056533;28;20456;-86
2023/03/29 05:02:08;;;;;;;7.37;4.40;;;11.00;51.30;;;;;;5061018;28;20533;-86
2023/03/29 05:04:37;;;;;;;4.33;3.60;;;11.00;51.30;;;;;;5069312;28;20439;-86
2023/03/29 05:07:11;;;;;;;5.20;3.80;;;10.90;51.30;;;;;;5052035;28;20553;-86
2023/03/29 05:09:39;;;;;;;5.60;3.83;;;10.90;51.40;;;;;;5051602;28;20451;-85
2023/03/29 05:12:08;;;;;;;5.00;3.47;;;10.80;50.50;;;;;;5034202;28;20502;-85
2023/03/29 05:14:46;;;;;;;4.00;3.37;;;10.70;50.00;;;;;;5048174;28;21039;-84
2023/03/29 05:17:13;;;;;;;4.93;3.00;;;10.40;50.30;;;;;;5031076;28;20460;-86
2023/03/29 05:19:42;;;;;;;10.93;3.90;;;10.10;51.40;;;;;;5043844;28;20436;-86
2023/03/29 05:22:09;;;;;;;5.80;3.53;;;10.00;51.70;;;;;;5059044;28;20455;-85
2023/03/29 05:24:36;;;;;;;3.60;3.30;;;10.10;51.30;;;;;;5048531;28;20451;-85
2023/03/29 05:27:12;;;;;;;3.87;3.30;;;10.00;51.10;;;;;;5051994;28;20476;-85
2023/03/29 05:29:39;;;;;;;3.97;3.57;;;9.90;52.30;;;;;;5030227;28;20456;-85
2023/03/29 05:32:25;;;;;;;3.90;3.30;;;9.70;52.90;;;;;;5049916;28;20455;-84
2023/03/29 05:34:51;;;;;;;4.47;3.57;;;9.80;52.70;;;;;;5063022;28;20547;-84
2023/03/29 05:37:19;;;;;;;6.77;3.70;;;9.90;53.00;;;;;;5033699;28;20505;-86
2023/03/29 05:39:51;;;;;;;5.30;3.70;;;9.90;52.70;;;;;;5038211;28;20444;-86
2023/03/29 05:42:23;;;;;;;4.53;3.30;;;9.90;53.10;;;;;;5049227;28;20487;-85
2023/03/29 05:44:54;;;;;;;3.77;3.43;;;10.00;53.00;;;;;;5057103;28;20439;-86
2023/03/29 05:47:22;;;;;;;7.83;4.63;;;10.10;52.90;;;;;;5041997;28;20482;-85
2023/03/29 05:49:50;;;;;;;7.50;3.63;;;10.30;52.80;;;;;;5039636;28;20543;-86
2023/03/29 05:52:21;;;;;;;17.13;3.50;;;10.40;52.50;;;;;;5041676;28;20964;-86
2023/03/29 05:54:48;;;;;;;6.03;3.80;;;10.40;52.50;;;;;;5054180;28;20475;-86
2023/03/29 05:57:15;;;;;;;6.00;3.73;;;10.50;52.70;;;;;;5042609;28;20455;-86
2023/03/29 05:59:45;;;;;;;5.10;3.80;;;10.50;52.70;;;;;;5052931;28;20476;-86
2023/03/29 06:02:14;;;;;;;6.30;3.80;;;10.60;52.50;;;;;;5051207;28;20483;-87
2023/03/29 06:04:46;;;;;;;5.20;2.93;;;10.70;52.50;;;;;;5057337;28;20432;-88
2023/03/29 06:07:37;;;;;;;6.40;4.10;;;10.80;52.70;;;;;;5048646;28;20460;-87
2023/03/29 06:10:27;;;;;;;5.80;4.10;;;11.00;52.70;;;;;;5071498;28;20467;-87
2023/03/29 06:13:05;;;;;;;5.10;3.10;;;11.00;52.50;;;;;;5068800;28;20452;-86
2023/03/29 06:15:36;;;;;;;6.17;3.80;;;11.10;52.50;;;;;;5056933;28;20521;-87
2023/03/29 06:18:05;;;;;;;7.27;3.40;;;11.10;52.70;;;;;;5058712;28;20498;-86
2023/03/29 06:20:34;;;;;;;4.00;3.30;;;10.90;53.30;;;;;;5071229;28;20505;-86
2023/03/29 06:23:07;;;;;;;8.80;3.60;;;11.00;53.10;;;;;;5055934;28;20458;-85
2023/03/29 06:25:34;;;;;;;6.73;3.20;;;10.90;53.40;;;;;;5035516;28;20441;-87
2023/03/29 06:28:02;;;;;;;3.67;3.27;;;10.70;54.10;;;;;;5040443;28;20459;-86
2023/03/29 06:30:29;;;;;;;5.53;4.10;;;10.90;53.90;;;;;;5037942;28;20449;-86
2023/03/29 06:33:00;;;;;;;4.23;3.70;;;11.00;53.60;;;;;;5049494;28;20432;-87
2023/03/29 06:35:46;;;;;;;4.70;3.63;;;11.10;53.20;;;;;;5053326;28;20779;-86
2023/03/29 06:38:18;;;;;;;6.03;4.00;;;11.20;52.90;;;;;;5071009;28;20456;-85
2023/03/29 06:41:05;;;;;;;4.97;3.37;;;11.20;52.90;;;;;;5052318;28;20820;-84
2023/03/29 06:43:52;;;;;;;5.37;3.73;;;11.30;52.90;;;;;;5064843;28;20448;-86
2023/03/29 06:46:23;;;;;;;7.93;4.13;;;11.30;52.70;;;;;;5043646;28;20531;-86
2023/03/29 06:48:56;;;;;;;4.27;3.87;;;11.30;52.50;;;;;;5051650;28;20444;-86
2023/03/29 06:51:29;;;;;;;7.57;3.40;;;11.40;52.50;;;;;;5037572;28;20888;-86
2023/03/29 06:53:56;;;;;;;4.10;3.10;;;11.50;52.60;;;;;;5067287;28;20468;-84
2023/03/29 06:56:23;;;;;;;9.50;4.00;;;11.60;52.90;;;;;;5064098;28;21027;-86
2023/03/29 06:59:02;;;;;;;8.50;4.30;;;11.60;51.90;;;;;;5034737;28;20535;-86
2023/03/29 07:01:52;;;;;;;8.93;5.00;;;11.50;51.90;;;;;;5015240;28;20472;-84
2023/03/29 07:04:46;;;;;;;6.97;4.20;;;11.50;52.10;;;;;;5052376;28;20439;-86
2023/03/29 07:07:36;;;;;;;5.83;3.73;;;11.60;51.90;;;;;;5027403;28;20847;-85
2023/03/29 07:10:20;;;;;;;4.00;3.70;;;11.70;51.70;;;;;;5032080;28;20452;-86
2023/03/29 07:13:09;;;;;;;8.70;3.70;;;11.50;52.50;;;;;;5067221;28;21023;-85
2023/03/29 07:15:36;;;;;;;6.60;3.80;;;11.60;52.60;;;;;;5050506;28;20461;-84
2023/03/29 07:18:17;;;;;;;8.57;5.00;;;11.60;52.50;;;;;;5058620;28;20597;-84
2023/03/29 07:20:46;;;;;;;7.50;3.60;;;11.60;52.70;;;;;;5028461;28;20527;-84
2023/03/29 07:23:13;;;;;;;4.30;3.80;;;11.70;52.40;;;;;;5041334;28;20448;-84
2023/03/29 07:25:40;;;;;;;4.00;3.07;;;11.70;52.10;;;;;;5047467;28;20474;-86
2023/03/29 07:28:08;;;;;;;3.83;3.30;;;11.50;52.60;;;;;;5045181;28;20841;-85
2023/03/29 07:30:35;;;;;;;3.67;3.23;;;11.50;52.80;;;;;;5056705;28;20455;-86
2023/03/29 07:33:21;;;;;;;5.43;3.50;;;11.50;53.00;;;;;;5065266;28;20440;-86
2023/03/29 07:35:56;;;;;;;4.70;3.10;;;11.60;53.20;;;;;;5040837;28;21006;-86
2023/03/29 07:38:24;;;;;;;6.07;3.80;;;11.80;53.30;;;;;;5031772;28;20984;-86
2023/03/29 07:41:03;;;;;;;4.50;3.80;;;11.90;52.70;;;;;;5039410;28;20516;-87
2023/03/29 07:43:44;;;;;;;6.13;3.70;;;12.10;52.50;;;;;;5043835;28;20443;-85
2023/03/29 07:46:13;;;;;;;3.53;3.00;;;12.10;52.00;;;;;;5042874;28;20452;-85
2023/03/29 07:48:40;;;;;;;6.80;3.73;;;12.10;52.60;;;;;;5048291;28;20475;-83
2023/03/29 07:51:15;;;;;;;6.87;4.20;;;12.00;52.40;;;;;;5048295;28;20443;-87
2023/03/29 07:53:48;;;;;;;9.30;4.50;;;11.80;52.80;;;;;;5048694;28;20511;-85
2023/03/29 07:56:41;;;;;;;7.10;4.10;;;12.00;52.90;;;;;;5027030;28;20455;-84
2023/03/29 07:59:16;;;;;;;5.73;4.20;;;12.10;52.50;;;;;;5042951;28;20547;-85
2023/03/29 08:01:45;;;;;;;5.60;4.07;;;12.10;52.40;;;;;;5042276;28;20910;-86
2023/03/29 08:04:25;;;;;;;6.10;4.10;;;12.30;52.60;;;;;;5056381;28;20551;-85
2023/03/29 08:07:13;;;;;;;4.87;3.80;;;12.40;52.50;;;;;;5056975;28;20468;-85
2023/03/29 08:10:17;;;;;;;5.83;4.20;;;12.50;52.00;;;;;;5028086;28;20444;-87
2023/03/29 08:13:00;;;;;;;4.67;3.53;;;12.60;52.00;;;;;;5046149;28;20455;-84
2023/03/29 08:15:34;;;;;;;3.70;3.40;;;12.80;51.80;;;;;;5045977;28;21243;-85
2023/03/29 08:18:01;;;;;;;7.47;3.90;;;12.80;51.20;;;;;;5057864;28;20522;-86
2023/03/29 08:20:28;;;;;;;5.73;3.87;;;12.90;51.40;;;;;;5024479;28;20459;-87
2023/03/29 08:23:01;;;;;;;5.23;3.30;;;12.70;51.30;;;;;;5045608;28;20444;-85
2023/03/29 08:25:49;;;;;;;4.63;3.37;;;12.70;51.70;;;;;;5032061;28;20567;-85
2023/03/29 08:28:17;;;;;;;4.67;3.40;;;12.60;51.60;;;;;;5029854;28;20467;-84
2023/03/29 08:30:48;;;;;;;4.37;3.40;;;12.80;51.40;;;;;;5048350;28;20548;-85
2023/03/29 08:33:15;;;;;;;5.80;2.93;;;12.90;51.00;;;;;;5031404;28;20462;-84
2023/03/29 08:35:43;;;;;;;5.20;4.50;;;13.10;50.50;;;;;;5055384;28;20503;-84
2023/03/29 08:38:20;;;;;;;8.83;5.23;;;13.30;50.70;;;;;;5041873;28;20471;-85
2023/03/29 08:40:49;;;;;;;5.57;3.90;;;13.30;50.50;;;;;;5044735;28;20506;-86
2023/03/29 08:43:39;;;;;;;4.40;3.90;;;13.20;50.60;;;;;;5060241;28;20949;-86
2023/03/29 08:46:37;;;;;;;4.13;3.80;;;13.10;51.30;;;;;;5043036;28;20470;-86
2023/03/29 08:49:19;;;;;;;4.90;4.00;;;12.80;52.10;;;;;;5024394;28;20512;-85
2023/03/29 08:51:51;;;;;;;7.17;4.07;;;12.80;52.10;;;;;;5025588;28;21123;-86
2023/03/29 08:54:25;;;;;;;3.67;3.17;;;12.90;51.80;;;;;;5046271;28;20532;-83
2023/03/29 08:57:20;;;;;;;5.40;3.97;;;13.00;51.30;;;;;;5053893;28;21039;-84
2023/03/29 08:59:53;;;;;;;3.80;3.20;;;13.20;51.30;;;;;;5047907;28;20472;-86
2023/03/29 09:02:24;;;;;;;5.00;3.00;;;13.50;50.70;;;;;;5053727;28;20530;-85
2023/03/29 09:05:00;;;;;;;4.03;3.30;;;13.70;50.10;;;;;;5040814;28;20451;-85
2023/03/29 09:07:33;;;;;;;3.57;2.80;;;13.80;49.20;;;;;;5066579;28;20475;-85
2023/03/29 09:10:03;;;;;;;3.60;2.40;;;13.80;48.70;;;;;;5062979;28;20501;-85
2023/03/29 09:12:50;;;;;;;4.27;2.80;;;14.00;48.90;;;;;;5051872;28;20437;-86
2023/03/29 09:15:24;;;;;;;3.37;2.30;;;14.20;48.50;;;;;;5046731;28;20839;-85
2023/03/29 09:18:16;;;;;;;3.00;2.70;;;14.20;48.00;;;;;;5061388;28;20551;-84
2023/03/29 09:20:51;;;;;;;8.10;2.87;;;14.40;47.80;;;;;;5057201;28;20436;-86
2023/03/29 09:23:37;;;;;;;7.50;3.43;;;14.40;46.80;;;;;;5044019;28;20448;-82
2023/03/29 09:26:29;;;;;;;2.30;2.10;;;14.20;47.80;;;;;;5049579;28;20444;-85
2023/03/29 09:29:25;;;;;;;2.70;2.07;;;14.20;47.90;;;;;;5032106;28;20497;-85
2023/03/29 09:31:54;;;;;;;3.20;2.60;;;14.10;47.60;;;;;;5049278;28;20789;-84
2023/03/29 09:34:28;;;;;;;8.07;3.13;;;14.30;47.10;;;;;;5058806;28;20449;-85
2023/03/29 09:37:06;;;;;;;3.87;2.50;;;14.50;47.80;;;;;;5029147;28;20466;-85
2023/03/29 09:39:33;;;;;;;3.37;2.07;;;14.70;46.70;;;;;;5032239;28;20451;-85
2023/03/29 09:42:13;;;;;;;5.70;2.20;;;14.80;46.50;;;;;;5050955;28;20462;-86
2023/03/29 09:44:45;;;;;;;3.20;2.17;;;14.60;46.90;;;;;;5044457;28;21118;-84
2023/03/29 09:47:23;;;;;;;2.73;2.10;;;14.70;46.60;;;;;;5033162;28;20866;-85
2023/03/29 09:49:59;;;;;;;3.17;2.20;;;14.80;46.50;;;;;;5041375;28;20498;-83
2023/03/29 09:52:26;;;;;;;3.10;1.93;;;15.20;46.00;;;;;;5049306;28;20447;-85
2023/03/29 09:55:05;;;;;;;2.60;2.20;;;15.30;45.50;;;;;;5046527;28;20558;-85
2023/03/29 09:57:45;;;;;;;3.50;2.20;;;15.60;45.00;;;;;;5051372;28;20522;-85
2023/03/29 10:00:15;;;;;;;2.03;1.60;;;15.70;44.80;;;;;;5054862;28;20458;-85
2023/03/29 10:02:51;;;;;;;3.33;2.20;;;15.60;44.60;;;;;;5058885;28;20464;-86
2023/03/29 10:05:21;;;;;;;2.00;1.80;;;15.60;44.60;;;;;;5032193;28;20527;-85
2023/03/29 10:07:52;;;;;;;4.10;2.00;;;15.60;44.70;;;;;;5054139;28;20472;-85
2023/03/29 10:10:23;;;;;;;4.03;2.00;;;15.70;44.20;;;;;;5033672;28;20452;-84
2023/03/29 10:12:54;;;;;;;2.23;1.90;;;16.00;42.70;;;;;;5030304;28;20449;-87
2023/03/29 10:15:21;;;;;;;3.73;1.90;;;16.00;43.90;;;;;;5046156;28;20606;-83
2023/03/29 10:17:48;;;;;;;2.43;1.70;;;16.30;44.60;;;;;;5025766;28;20475;-85
2023/03/29 10:20:18;;;;;;;5.43;2.37;;;16.40;43.10;;;;;;5051219;28;20454;-86
2023/03/29 10:22:54;;;;;;;2.37;1.40;;;16.40;42.40;;;;;;5042760;28;20539;-84
2023/03/29 10:25:26;;;;;;;3.07;1.60;;;16.30;43.10;;;;;;5081976;28;20443;-85
2023/03/29 10:28:03;;;;;;;3.93;1.90;;;16.40;42.80;;;;;;5028829;28;20870;-86
2023/03/29 10:30:34;;;;;;;2.73;1.80;;;16.60;42.90;;;;;;5031426;28;20472;-86
2023/03/29 10:33:02;;;;;;;2.10;1.77;;;16.60;42.90;;;;;;5058823;28;20467;-85
2023/03/29 10:35:32;;;;;;;4.87;1.70;;;16.70;43.00;;;;;;5045226;28;20555;-85
2023/03/29 10:38:02;;;;;;;3.40;1.63;;;16.80;42.20;;;;;;5055901;28;20468;-86
2023/03/29 10:40:32;;;;;;;3.73;1.80;;;16.80;42.30;;;;;;5039827;28;20973;-86
2023/03/29 10:43:10;;;;;;;2.83;1.40;;;17.00;41.70;;;;;;5058342;28;20437;-84
2023/03/29 10:45:38;;;;;;;2.43;1.80;;;17.00;42.30;;;;;;5031684;28;20437;-85
2023/03/29 10:48:06;;;;;;;3.00;1.73;;;17.20;42.50;;;;;;5047508;28;20472;-85
2023/03/29 10:50:36;;;;;;;3.33;1.63;;;17.20;42.20;;;;;;5064932;28;20462;-87
2023/03/29 10:53:11;;;;;;;1.40;1.30;;;17.40;42.00;;;;;;5060185;28;20459;-85
2023/03/29 10:55:51;;;;;;;2.33;1.37;;;17.60;42.30;;;;;;5048508;28;20466;-84
2023/03/29 10:58:32;;;;;;;2.37;1.40;;;17.90;41.80;;;;;;5057230;28;20464;-88
2023/03/29 11:00:59;;;;;;;2.40;1.70;;;17.70;40.60;;;;;;5034522;28;20533;-86
2023/03/29 11:03:48;;;;;;;3.20;1.70;;;17.50;41.40;;;;;;5065043;28;20452;-86
2023/03/29 11:06:24;;;;;;;2.47;2.00;;;17.20;42.30;;;;;;5049060;28;20495;-85
2023/03/29 11:08:56;;;;;;;1.70;1.60;;;17.30;41.40;;;;;;5046957;28;20479;-86
2023/03/29 11:11:51;;;;;;;2.13;1.40;;;17.40;41.00;;;;;;5043300;28;20506;-86
2023/03/29 11:14:31;;;;;;;1.53;1.43;;;17.50;42.10;;;;;;5057058;28;20453;-85
2023/03/29 11:17:12;;;;;;;3.20;1.90;;;17.60;41.60;;;;;;5041994;28;20516;-86
2023/03/29 11:19:49;;;;;;;2.30;1.30;;;17.50;41.40;;;;;;5041376;28;20449;-83
2023/03/29 11:22:24;;;;;;;2.33;1.50;;;17.30;41.50;;;;;;5052836;28;20443;-83
2023/03/29 11:25:20;;;;;;;3.23;1.40;;;17.20;41.60;;;;;;5058503;28;20810;-85
2023/03/29 11:27:54;;;;;;;2.70;1.60;;;17.10;42.00;;;;;;5043713;28;20980;-85
2023/03/29 11:30:28;;;;;;;2.63;1.50;;;17.40;42.70;;;;;;5039405;28;20450;-84
2023/03/29 11:33:03;;;;;;;1.23;1.13;;;17.50;41.70;;;;;;5059266;28;20960;-86
2023/03/29 11:35:48;;;;;;;1.33;1.23;;;17.70;41.00;;;;;;5030356;28;20475;-86
2023/03/29 11:38:23;;;;;;;1.43;1.20;;;17.60;40.50;;;;;;5065890;28;20472;-85
2023/03/29 11:40:59;;;;;;;2.57;1.50;;;17.50;41.70;;;;;;5032138;28;20448;-85
2023/03/29 11:43:31;;;;;;;1.90;1.40;;;17.50;41.50;;;;;;5043758;28;20440;-85
2023/03/29 11:46:08;;;;;;;2.27;1.40;;;17.70;41.50;;;;;;5055998;28;20451;-85
2023/03/29 11:48:41;;;;;;;1.70;1.50;;;17.90;41.00;;;;;;5050353;28;20498;-84
2023/03/29 11:51:14;;;;;;;2.20;2.00;;;18.10;41.90;;;;;;5060262;28;20439;-85
2023/03/29 11:53:50;;;;;;;4.00;1.70;;;18.20;41.10;;;;;;5025724;28;20462;-86
2023/03/29 11:56:25;;;;;;;2.07;1.70;;;18.40;40.80;;;;;;5041523;28;20455;-85
2023/03/29 11:58:58;;;;;;;2.63;1.87;;;18.20;40.80;;;;;;5048350;28;20459;-86
2023/03/29 12:01:31;;;;;;;2.67;2.17;;;18.30;40.50;;;;;;5061933;28;20447;-85
2023/03/29 12:04:03;;;;;;;3.43;2.90;;;18.30;40.90;;;;;;5046728;28;20436;-86
2023/03/29 12:06:37;;;;;;;3.00;1.83;;;18.40;40.80;;;;;;5064130;28;20436;-84
2023/03/29 12:09:12;;;;;;;2.70;1.87;;;18.70;41.00;;;;;;5059696;28;20456;-86
2023/03/29 12:11:43;;;;;;;4.40;1.67;;;18.50;39.80;;;;;;5056109;28;20454;-86
2023/03/29 12:14:15;;;;;;;2.33;1.60;;;18.50;40.90;;;;;;5045635;28;20431;-86
2023/03/29 12:16:47;;;;;;;3.07;1.70;;;18.60;41.40;;;;;;5055094;28;20480;-85
2023/03/29 12:19:18;;;;;;;1.80;1.60;;;18.60;40.70;;;;;;5071402;28;20452;-87
2023/03/29 12:21:47;;;;;;;1.97;1.73;;;18.60;40.40;;;;;;5046443;28;20476;-85
2023/03/29 12:24:18;;;;;;;1.57;1.40;;;18.60;41.20;;;;;;5047276;28;20441;-85
2023/03/29 12:27:18;;;;;;;3.80;1.70;;;18.90;41.40;;;;;;5035066;28;20840;-85
2023/03/29 12:30:26;;;;;;;7.00;2.27;;;19.00;41.00;;;;;;5040738;28;20966;-85
2023/03/29 12:33:13;;;;;;;4.57;1.60;;;19.00;41.40;;;;;;5045739;28;21115;-84
2023/03/29 12:35:55;;;;;;;1.70;1.60;;;18.70;42.60;;;;;;5051838;28;20469;-85
2023/03/29 12:38:43;;;;;;;3.20;1.97;;;18.60;42.80;;;;;;5043375;28;20485;-84
2023/03/29 12:41:37;;;;;;;2.30;1.80;;;18.40;43.40;;;;;;5060592;28;20448;-86
2023/03/29 12:44:36;;;;;;;3.90;1.37;;;18.50;43.70;;;;;;5070701;28;20452;-85
2023/03/29 12:47:23;;;;;;;4.03;2.40;;;18.70;42.80;;;;;;5049411;28;20468;-86
2023/03/29 12:49:55;;;;;;;3.80;1.40;;;18.70;43.70;;;;;;5043152;28;20456;-85
2023/03/29 12:52:26;;;;;;;4.73;2.50;;;18.70;42.20;;;;;;5049721;28;20498;-87
2023/03/29 12:54:55;;;;;;;6.67;2.90;;;18.60;43.60;;;;;;5075449;28;20456;-86
2023/03/29 12:57:27;;;;;;;3.27;2.17;;;18.60;44.00;;;;;;5046134;28;20468;-86
2023/03/29 12:59:55;;;;;;;4.00;1.70;;;18.60;44.10;;;;;;5050681;28;20823;-86
2023/03/29 13:02:34;;;;;;;1.53;1.43;;;18.70;44.20;;;;;;5050376;28;20597;-85
2023/03/29 13:05:05;;;;;;;2.07;1.57;;;18.50;43.70;;;;;;5062741;28;20440;-86
2023/03/29 13:07:45;;;;;;;2.03;1.37;;;18.40;43.70;;;;;;5034231;28;20466;-86
2023/03/29 13:10:37;;;;;;;4.53;1.63;;;18.40;44.50;;;;;;5062740;28;20455;-85
2023/03/29 13:13:18;;;;;;;5.57;2.57;;;18.40;44.30;;;;;;5066303;28;20946;-86
2023/03/29 13:15:46;;;;;;;3.20;1.30;;;18.20;44.60;;;;;;5032120;28;20475;-86
2023/03/29 13:18:38;;;;;;;1.83;1.23;;;18.10;45.50;;;;;;5045833;28;20546;-86
2023/03/29 13:21:17;;;;;;;1.80;1.50;;;18.30;45.20;;;;;;5066025;28;20471;-86
2023/03/29 13:23:53;;;;;;;2.73;1.47;;;18.20;44.80;;;;;;5055931;28;20528;-86